sensor_id;sensor_type;location;lat;lon;timestamp;temperature;humidity
45008;DHT22;30743;52.008;5.644;2023-04-19T00:00:41;13.20;99.90
45008;DHT22;30743;52.008;5.644;2023-04-19T00:03:07;13.30;99.90
45008;DHT22;30743;52.008;5.644;2023-04-19T00:05:34;13.40;99.90
45008;DHT22;30743;52.008;5.644;2023-04-19T00:07:59;13.40;99.90
45008;DHT22;30743;52.008;5.644;2023-04-19T00:10:25;13.60;99.90
45008;DHT22;30743;52.008;5.644;2023-04-19T00:12:51;13.60;99.90
45008;DHT22;30743;52.008;5.644;2023-04-19T00:15:17;13.70;99.90
45008;DHT22;30743;52.008;5.644;2023-04-19T00:17:43;13.90;99.90
45008;DHT22;30743;52.008;5.644;2023-04-19T00:20:09;13.80;99.90
45008;DHT22;30743;52.008;5.644;2023-04-19T00:22:35;14.00;99.90
45008;DHT22;30743;52.008;5.644;2023-04-19T00:25:01;14.20;99.90
45008;DHT22;30743;52.008;5.644;2023-04-19T00:27:27;15.30;99.90
45008;DHT22;30743;52.008;5.644;2023-04-19T00:29:52;14.20;99.90
45008;DHT22;30743;52.008;5.644;2023-04-19T00:32:18;14.00;99.90
45008;DHT22;30743;52.008;5.644;2023-04-19T00:34:44;13.90;99.90
45008;DHT22;30743;52.008;5.644;2023-04-19T00:37:10;13.70;99.90
45008;DHT22;30743;52.008;5.644;2023-04-19T00:39:35;13.80;99.90
45008;DHT22;30743;52.008;5.644;2023-04-19T00:42:01;13.70;99.90
45008;DHT22;30743;52.008;5.644;2023-04-19T00:44:27;13.60;99.90
45008;DHT22;30743;52.008;5.644;2023-04-19T00:46:53;13.60;99.90
45008;DHT22;30743;52.008;5.644;2023-04-19T00:49:19;13.30;99.90
45008;DHT22;30743;52.008;5.644;2023-04-19T00:51:47;13.20;99.90
45008;DHT22;30743;52.008;5.644;2023-04-19T00:54:13;12.90;99.90
45008;DHT22;30743;52.008;5.644;2023-04-19T00:56:39;12.70;99.90
45008;DHT22;30743;52.008;5.644;2023-04-19T00:59:05;12.70;99.90
45008;DHT22;30743;52.008;5.644;2023-04-19T01:01:32;12.70;99.90
45008;DHT22;30743;52.008;5.644;2023-04-19T01:03:59;12.80;99.90
45008;DHT22;30743;52.008;5.644;2023-04-19T01:06:26;12.70;99.90
45008;DHT22;30743;52.008;5.644;2023-04-19T01:08:52;12.70;99.90
45008;DHT22;30743;52.008;5.644;2023-04-19T01:11:18;12.70;99.90
45008;DHT22;30743;52.008;5.644;2023-04-19T01:13:44;12.70;99.90
45008;DHT22;30743;52.008;5.644;2023-04-19T01:16:09;12.60;99.90
45008;DHT22;30743;52.008;5.644;2023-04-19T01:18:35;12.60;99.90
45008;DHT22;30743;52.008;5.644;2023-04-19T01:21:02;12.70;99.90
45008;DHT22;30743;52.008;5.644;2023-04-19T01:23:28;12.80;99.90
45008;DHT22;30743;52.008;5.644;2023-04-19T01:25:54;12.60;99.90
45008;DHT22;30743;52.008;5.644;2023-04-19T01:28:20;12.60;99.90
45008;DHT22;30743;52.008;5.644;2023-04-19T01:30:46;12.60;99.90
45008;DHT22;30743;52.008;5.644;2023-04-19T01:33:11;12.50;99.90
45008;DHT22;30743;52.008;5.644;2023-04-19T01:35:37;12.60;99.90
45008;DHT22;30743;52.008;5.644;2023-04-19T01:38:02;12.70;99.90
45008;DHT22;30743;52.008;5.644;2023-04-19T01:40:29;12.70;99.90
45008;DHT22;30743;52.008;5.644;2023-04-19T01:42:55;12.50;99.90
45008;DHT22;30743;52.008;5.644;2023-04-19T01:45:20;12.50;99.90
45008;DHT22;30743;52.008;5.644;2023-04-19T01:47:46;12.50;99.90
45008;DHT22;30743;52.008;5.644;2023-04-19T01:50:11;12.50;99.90
45008;DHT22;30743;52.008;5.644;2023-04-19T01:52:37;12.50;99.90
45008;DHT22;30743;52.008;5.644;2023-04-19T01:55:02;12.40;99.90
45008;DHT22;30743;52.008;5.644;2023-04-19T01:57:28;12.40;99.90
45008;DHT22;30743;52.008;5.644;2023-04-19T01:59:54;12.30;99.90
45008;DHT22;30743;52.008;5.644;2023-04-19T02:02:19;12.30;99.90
45008;DHT22;30743;52.008;5.644;2023-04-19T02:04:45;12.30;99.90
45008;DHT22;30743;52.008;5.644;2023-04-19T02:07:10;12.40;99.90
45008;DHT22;30743;52.008;5.644;2023-04-19T02:09:37;12.40;99.90
45008;DHT22;30743;52.008;5.644;2023-04-19T02:12:04;12.40;99.90
45008;DHT22;30743;52.008;5.644;2023-04-19T02:14:30;12.40;99.90
45008;DHT22;30743;52.008;5.644;2023-04-19T02:16:56;12.40;99.90
45008;DHT22;30743;52.008;5.644;2023-04-19T02:19:22;12.20;99.90
45008;DHT22;30743;52.008;5.644;2023-04-19T02:21:47;12.10;99.90
45008;DHT22;30743;52.008;5.644;2023-04-19T02:24:13;12.10;99.90
45008;DHT22;30743;52.008;5.644;2023-04-19T02:26:39;12.10;99.90
45008;DHT22;30743;52.008;5.644;2023-04-19T02:29:05;12.30;99.90
45008;DHT22;30743;52.008;5.644;2023-04-19T02:31:31;12.20;99.90
45008;DHT22;30743;52.008;5.644;2023-04-19T02:33:56;12.10;99.90
45008;DHT22;30743;52.008;5.644;2023-04-19T02:36:22;12.10;99.90
45008;DHT22;30743;52.008;5.644;2023-04-19T02:38:47;12.10;99.90
45008;DHT22;30743;52.008;5.644;2023-04-19T02:41:13;12.10;99.90
45008;DHT22;30743;52.008;5.644;2023-04-19T02:43:38;12.10;99.90
45008;DHT22;30743;52.008;5.644;2023-04-19T02:46:04;12.10;99.90
45008;DHT22;30743;52.008;5.644;2023-04-19T02:48:30;11.80;99.90
45008;DHT22;30743;52.008;5.644;2023-04-19T02:50:56;11.70;99.90
45008;DHT22;30743;52.008;5.644;2023-04-19T02:53:22;11.70;99.90
45008;DHT22;30743;52.008;5.644;2023-04-19T02:55:47;11.70;99.90
45008;DHT22;30743;52.008;5.644;2023-04-19T02:58:13;12.00;99.90
45008;DHT22;30743;52.008;5.644;2023-04-19T03:00:38;12.10;99.90
45008;DHT22;30743;52.008;5.644;2023-04-19T03:03:04;12.30;99.90
45008;DHT22;30743;52.008;5.644;2023-04-19T03:05:29;12.50;99.90
45008;DHT22;30743;52.008;5.644;2023-04-19T03:07:55;12.60;99.90
45008;DHT22;30743;52.008;5.644;2023-04-19T03:10:20;12.50;99.90
45008;DHT22;30743;52.008;5.644;2023-04-19T03:12:46;12.70;99.90
45008;DHT22;30743;52.008;5.644;2023-04-19T03:15:11;12.80;99.90
45008;DHT22;30743;52.008;5.644;2023-04-19T03:17:37;12.90;99.90
45008;DHT22;30743;52.008;5.644;2023-04-19T03:20:03;12.80;99.90
45008;DHT22;30743;52.008;5.644;2023-04-19T03:22:36;12.80;99.90
45008;DHT22;30743;52.008;5.644;2023-04-19T03:25:02;12.70;99.90
45008;DHT22;30743;52.008;5.644;2023-04-19T03:27:28;12.70;99.90
45008;DHT22;30743;52.008;5.644;2023-04-19T03:29:55;12.70;99.90
45008;DHT22;30743;52.008;5.644;2023-04-19T03:32:21;12.70;99.90
45008;DHT22;30743;52.008;5.644;2023-04-19T03:34:46;12.60;99.90
45008;DHT22;30743;52.008;5.644;2023-04-19T03:37:12;12.70;99.90
45008;DHT22;30743;52.008;5.644;2023-04-19T03:39:37;12.80;99.90
45008;DHT22;30743;52.008;5.644;2023-04-19T03:42:03;12.80;99.90
45008;DHT22;30743;52.008;5.644;2023-04-19T03:44:31;12.60;99.90
45008;DHT22;30743;52.008;5.644;2023-04-19T03:46:57;12.40;99.90
45008;DHT22;30743;52.008;5.644;2023-04-19T03:49:22;12.50;99.90
45008;DHT22;30743;52.008;5.644;2023-04-19T03:51:48;12.60;99.90
45008;DHT22;30743;52.008;5.644;2023-04-19T03:54:13;12.40;99.90
45008;DHT22;30743;52.008;5.644;2023-04-19T03:56:39;12.20;99.90
45008;DHT22;30743;52.008;5.644;2023-04-19T03:59:04;12.00;99.90
45008;DHT22;30743;52.008;5.644;2023-04-19T04:01:30;12.10;99.90
45008;DHT22;30743;52.008;5.644;2023-04-19T04:03:55;12.00;99.90
45008;DHT22;30743;52.008;5.644;2023-04-19T04:06:21;12.00;99.90
45008;DHT22;30743;52.008;5.644;2023-04-19T04:08:46;11.70;99.90
45008;DHT22;30743;52.008;5.644;2023-04-19T04:11:12;11.70;99.90
45008;DHT22;30743;52.008;5.644;2023-04-19T04:13:38;11.70;99.90
45008;DHT22;30743;52.008;5.644;2023-04-19T04:16:03;11.60;99.90
45008;DHT22;30743;52.008;5.644;2023-04-19T04:18:29;11.80;99.90
45008;DHT22;30743;52.008;5.644;2023-04-19T04:20:55;11.50;99.90
45008;DHT22;30743;52.008;5.644;2023-04-19T04:23:20;11.40;99.90
45008;DHT22;30743;52.008;5.644;2023-04-19T04:25:46;11.40;99.90
45008;DHT22;30743;52.008;5.644;2023-04-19T04:28:11;11.40;99.90
45008;DHT22;30743;52.008;5.644;2023-04-19T04:30:38;11.40;99.90
45008;DHT22;30743;52.008;5.644;2023-04-19T04:33:04;11.20;99.90
45008;DHT22;30743;52.008;5.644;2023-04-19T04:35:30;11.20;99.90
45008;DHT22;30743;52.008;5.644;2023-04-19T04:37:55;11.20;99.90
45008;DHT22;30743;52.008;5.644;2023-04-19T04:40:21;11.30;99.90
45008;DHT22;30743;52.008;5.644;2023-04-19T04:42:47;11.20;99.90
45008;DHT22;30743;52.008;5.644;2023-04-19T04:45:13;11.20;99.90
45008;DHT22;30743;52.008;5.644;2023-04-19T04:47:38;11.10;99.90
45008;DHT22;30743;52.008;5.644;2023-04-19T04:50:04;11.10;99.90
45008;DHT22;30743;52.008;5.644;2023-04-19T04:52:30;11.10;99.90
45008;DHT22;30743;52.008;5.644;2023-04-19T04:54:55;11.00;99.90
45008;DHT22;30743;52.008;5.644;2023-04-19T04:57:21;11.10;99.90
45008;DHT22;30743;52.008;5.644;2023-04-19T04:59:46;11.00;99.90
45008;DHT22;30743;52.008;5.644;2023-04-19T05:02:13;10.90;99.90
45008;DHT22;30743;52.008;5.644;2023-04-19T05:04:39;11.00;99.90
45008;DHT22;30743;52.008;5.644;2023-04-19T05:07:04;10.90;99.90
45008;DHT22;30743;52.008;5.644;2023-04-19T05:09:30;10.90;99.90
45008;DHT22;30743;52.008;5.644;2023-04-19T05:11:56;10.90;99.90
45008;DHT22;30743;52.008;5.644;2023-04-19T05:14:22;10.90;99.90
45008;DHT22;30743;52.008;5.644;2023-04-19T05:16:47;10.90;99.90
45008;DHT22;30743;52.008;5.644;2023-04-19T05:19:13;11.00;99.90
45008;DHT22;30743;52.008;5.644;2023-04-19T05:21:38;11.00;99.90
45008;DHT22;30743;52.008;5.644;2023-04-19T05:24:04;10.90;99.90
45008;DHT22;30743;52.008;5.644;2023-04-19T05:26:30;10.90;99.90
45008;DHT22;30743;52.008;5.644;2023-04-19T05:28:56;10.90;99.90
45008;DHT22;30743;52.008;5.644;2023-04-19T05:31:22;10.90;99.90
45008;DHT22;30743;52.008;5.644;2023-04-19T05:33:47;10.90;99.90
45008;DHT22;30743;52.008;5.644;2023-04-19T05:36:13;11.00;99.90
45008;DHT22;30743;52.008;5.644;2023-04-19T05:38:38;11.00;99.90
45008;DHT22;30743;52.008;5.644;2023-04-19T05:41:04;11.00;99.90
45008;DHT22;30743;52.008;5.644;2023-04-19T05:43:30;11.00;99.90
45008;DHT22;30743;52.008;5.644;2023-04-19T05:45:56;11.00;99.90
45008;DHT22;30743;52.008;5.644;2023-04-19T05:48:21;10.90;99.90
45008;DHT22;30743;52.008;5.644;2023-04-19T05:50:47;11.00;99.90
45008;DHT22;30743;52.008;5.644;2023-04-19T05:53:12;11.00;99.90
45008;DHT22;30743;52.008;5.644;2023-04-19T05:55:38;11.20;99.90
45008;DHT22;30743;52.008;5.644;2023-04-19T05:58:04;11.30;99.90
45008;DHT22;30743;52.008;5.644;2023-04-19T06:00:29;11.30;99.90
45008;DHT22;30743;52.008;5.644;2023-04-19T06:02:55;11.40;99.90
45008;DHT22;30743;52.008;5.644;2023-04-19T06:05:20;11.40;99.90
45008;DHT22;30743;52.008;5.644;2023-04-19T06:07:46;11.40;99.90
45008;DHT22;30743;52.008;5.644;2023-04-19T06:10:12;11.50;99.90
45008;DHT22;30743;52.008;5.644;2023-04-19T06:12:38;11.50;99.90
45008;DHT22;30743;52.008;5.644;2023-04-19T06:15:04;11.60;99.90
45008;DHT22;30743;52.008;5.644;2023-04-19T06:17:30;11.70;99.90
45008;DHT22;30743;52.008;5.644;2023-04-19T06:19:56;11.70;99.90
45008;DHT22;30743;52.008;5.644;2023-04-19T06:22:21;11.80;99.90
45008;DHT22;30743;52.008;5.644;2023-04-19T06:24:47;11.70;99.90
45008;DHT22;30743;52.008;5.644;2023-04-19T06:27:14;11.70;99.90
45008;DHT22;30743;52.008;5.644;2023-04-19T06:29:40;11.80;99.90
45008;DHT22;30743;52.008;5.644;2023-04-19T06:32:06;11.90;99.90
45008;DHT22;30743;52.008;5.644;2023-04-19T06:34:32;11.90;99.90
45008;DHT22;30743;52.008;5.644;2023-04-19T06:36:57;12.00;99.90
45008;DHT22;30743;52.008;5.644;2023-04-19T06:39:23;12.00;99.90
45008;DHT22;30743;52.008;5.644;2023-04-19T06:41:48;12.00;99.90
45008;DHT22;30743;52.008;5.644;2023-04-19T06:44:14;12.10;99.90
45008;DHT22;30743;52.008;5.644;2023-04-19T06:46:40;12.40;99.90
45008;DHT22;30743;52.008;5.644;2023-04-19T06:49:05;12.50;99.90
45008;DHT22;30743;52.008;5.644;2023-04-19T06:51:32;12.50;99.90
45008;DHT22;30743;52.008;5.644;2023-04-19T06:53:58;12.80;99.90
45008;DHT22;30743;52.008;5.644;2023-04-19T06:56:59;13.00;99.90
45008;DHT22;30743;52.008;5.644;2023-04-19T06:59:26;12.90;99.90
45008;DHT22;30743;52.008;5.644;2023-04-19T07:01:52;13.00;99.90
45008;DHT22;30743;52.008;5.644;2023-04-19T07:04:19;13.10;99.90
45008;DHT22;30743;52.008;5.644;2023-04-19T07:06:47;13.20;99.90
45008;DHT22;30743;52.008;5.644;2023-04-19T07:09:14;13.30;99.90
45008;DHT22;30743;52.008;5.644;2023-04-19T07:11:40;13.50;99.90
45008;DHT22;30743;52.008;5.644;2023-04-19T07:14:05;13.60;99.90
45008;DHT22;30743;52.008;5.644;2023-04-19T07:16:31;13.70;99.90
45008;DHT22;30743;52.008;5.644;2023-04-19T07:18:57;13.70;99.90
45008;DHT22;30743;52.008;5.644;2023-04-19T07:21:23;13.60;99.90
45008;DHT22;30743;52.008;5.644;2023-04-19T07:23:54;13.60;99.90
45008;DHT22;30743;52.008;5.644;2023-04-19T07:26:20;13.70;99.90
45008;DHT22;30743;52.008;5.644;2023-04-19T07:28:45;14.10;99.90
45008;DHT22;30743;52.008;5.644;2023-04-19T07:31:14;14.10;99.50
45008;DHT22;30743;52.008;5.644;2023-04-19T07:33:41;13.80;99.00
45008;DHT22;30743;52.008;5.644;2023-04-19T07:36:07;14.00;99.10
45008;DHT22;30743;52.008;5.644;2023-04-19T07:38:33;13.90;98.40
45008;DHT22;30743;52.008;5.644;2023-04-19T07:40:58;13.80;99.20
45008;DHT22;30743;52.008;5.644;2023-04-19T07:43:24;14.10;99.70
45008;DHT22;30743;52.008;5.644;2023-04-19T07:45:50;14.20;99.70
45008;DHT22;30743;52.008;5.644;2023-04-19T07:48:16;14.30;99.30
45008;DHT22;30743;52.008;5.644;2023-04-19T07:50:41;14.30;98.60
45008;DHT22;30743;52.008;5.644;2023-04-19T07:53:07;14.60;99.90
45008;DHT22;30743;52.008;5.644;2023-04-19T07:55:33;14.70;98.90
45008;DHT22;30743;52.008;5.644;2023-04-19T07:57:59;14.40;97.80
45008;DHT22;30743;52.008;5.644;2023-04-19T08:00:25;14.10;97.60
45008;DHT22;30743;52.008;5.644;2023-04-19T08:02:50;14.20;98.60
45008;DHT22;30743;52.008;5.644;2023-04-19T08:05:16;14.50;98.40
45008;DHT22;30743;52.008;5.644;2023-04-19T08:07:43;14.70;98.00
45008;DHT22;30743;52.008;5.644;2023-04-19T08:10:09;15.10;99.00
45008;DHT22;30743;52.008;5.644;2023-04-19T08:12:35;15.10;97.00
45008;DHT22;30743;52.008;5.644;2023-04-19T08:15:01;15.20;97.20
45008;DHT22;30743;52.008;5.644;2023-04-19T08:17:27;14.90;97.50
45008;DHT22;30743;52.008;5.644;2023-04-19T08:19:52;14.80;96.60
45008;DHT22;30743;52.008;5.644;2023-04-19T08:22:19;14.90;97.70
45008;DHT22;30743;52.008;5.644;2023-04-19T08:24:45;15.20;96.40
45008;DHT22;30743;52.008;5.644;2023-04-19T08:27:11;15.20;96.60
45008;DHT22;30743;52.008;5.644;2023-04-19T08:29:37;15.10;97.30
45008;DHT22;30743;52.008;5.644;2023-04-19T08:32:06;14.90;95.90
45008;DHT22;30743;52.008;5.644;2023-04-19T08:34:34;14.80;95.70
45008;DHT22;30743;52.008;5.644;2023-04-19T08:37:00;14.90;97.20
45008;DHT22;30743;52.008;5.644;2023-04-19T08:39:26;14.80;95.60
45008;DHT22;30743;52.008;5.644;2023-04-19T08:41:52;15.00;95.80
45008;DHT22;30743;52.008;5.644;2023-04-19T08:44:20;15.10;96.60
45008;DHT22;30743;52.008;5.644;2023-04-19T08:46:47;15.10;96.20
45008;DHT22;30743;52.008;5.644;2023-04-19T08:49:15;15.20;95.90
45008;DHT22;30743;52.008;5.644;2023-04-19T08:51:41;15.20;96.30
45008;DHT22;30743;52.008;5.644;2023-04-19T08:54:07;15.40;95.20
45008;DHT22;30743;52.008;5.644;2023-04-19T08:56:33;15.70;95.70
45008;DHT22;30743;52.008;5.644;2023-04-19T08:58:59;15.70;94.20
45008;DHT22;30743;52.008;5.644;2023-04-19T09:01:24;15.60;95.70
45008;DHT22;30743;52.008;5.644;2023-04-19T09:03:50;15.60;94.20
45008;DHT22;30743;52.008;5.644;2023-04-19T09:06:15;15.60;93.90
45008;DHT22;30743;52.008;5.644;2023-04-19T09:08:41;15.50;93.40
45008;DHT22;30743;52.008;5.644;2023-04-19T09:11:07;15.80;95.30
45008;DHT22;30743;52.008;5.644;2023-04-19T09:13:33;15.70;94.20
45008;DHT22;30743;52.008;5.644;2023-04-19T09:16:03;15.50;93.30
45008;DHT22;30743;52.008;5.644;2023-04-19T09:18:29;15.70;92.50
45008;DHT22;30743;52.008;5.644;2023-04-19T09:20:55;15.80;92.50
45008;DHT22;30743;52.008;5.644;2023-04-19T09:23:26;16.10;92.30
45008;DHT22;30743;52.008;5.644;2023-04-19T09:25:56;16.10;92.10
45008;DHT22;30743;52.008;5.644;2023-04-19T09:28:22;16.60;94.20
45008;DHT22;30743;52.008;5.644;2023-04-19T09:30:48;16.90;92.00
45008;DHT22;30743;52.008;5.644;2023-04-19T09:33:33;16.80;91.20
45008;DHT22;30743;52.008;5.644;2023-04-19T09:36:00;17.00;92.90
45008;DHT22;30743;52.008;5.644;2023-04-19T09:38:26;17.50;92.40
45008;DHT22;30743;52.008;5.644;2023-04-19T09:40:53;17.70;91.80
45008;DHT22;30743;52.008;5.644;2023-04-19T09:43:29;17.80;92.00
45008;DHT22;30743;52.008;5.644;2023-04-19T09:45:55;17.20;90.70
45008;DHT22;30743;52.008;5.644;2023-04-19T09:48:22;16.90;91.70
45008;DHT22;30743;52.008;5.644;2023-04-19T09:53:23;16.90;93.30
45008;DHT22;30743;52.008;5.644;2023-04-19T09:55:48;17.30;93.50
45008;DHT22;30743;52.008;5.644;2023-04-19T09:58:18;17.00;92.10
45008;DHT22;30743;52.008;5.644;2023-04-19T10:00:45;17.10;92.80
45008;DHT22;30743;52.008;5.644;2023-04-19T10:03:15;17.30;92.80
45008;DHT22;30743;52.008;5.644;2023-04-19T10:05:42;17.30;90.80
45008;DHT22;30743;52.008;5.644;2023-04-19T10:08:09;17.30;91.60
45008;DHT22;30743;52.008;5.644;2023-04-19T10:10:36;17.70;91.80
45008;DHT22;30743;52.008;5.644;2023-04-19T10:13:06;17.50;91.10
45008;DHT22;30743;52.008;5.644;2023-04-19T10:15:34;17.40;92.80
45008;DHT22;30743;52.008;5.644;2023-04-19T10:18:01;17.60;92.30
45008;DHT22;30743;52.008;5.644;2023-04-19T10:20:46;17.40;90.90
45008;DHT22;30743;52.008;5.644;2023-04-19T10:23:14;17.90;92.00
45008;DHT22;30743;52.008;5.644;2023-04-19T10:25:45;18.20;92.10
45008;DHT22;30743;52.008;5.644;2023-04-19T10:28:10;18.10;90.80
45008;DHT22;30743;52.008;5.644;2023-04-19T10:30:54;18.00;91.90
45008;DHT22;30743;52.008;5.644;2023-04-19T10:33:29;17.90;92.80
45008;DHT22;30743;52.008;5.644;2023-04-19T10:35:59;17.70;91.10
45008;DHT22;30743;52.008;5.644;2023-04-19T10:38:45;17.60;91.30
45008;DHT22;30743;52.008;5.644;2023-04-19T10:41:19;17.50;91.20
45008;DHT22;30743;52.008;5.644;2023-04-19T10:51:18;17.70;87.90
45008;DHT22;30743;52.008;5.644;2023-04-19T10:53:46;18.00;91.10
45008;DHT22;30743;52.008;5.644;2023-04-19T10:56:13;18.10;88.60
45008;DHT22;30743;52.008;5.644;2023-04-19T11:01:43;18.80;88.00
45008;DHT22;30743;52.008;5.644;2023-04-19T11:12:02;19.80;87.90
45008;DHT22;30743;52.008;5.644;2023-04-19T11:14:33;19.50;84.40
45008;DHT22;30743;52.008;5.644;2023-04-19T11:17:02;19.10;86.20
45008;DHT22;30743;52.008;5.644;2023-04-19T11:19:28;19.00;85.30
45008;DHT22;30743;52.008;5.644;2023-04-19T11:21:57;19.00;87.90
45008;DHT22;30743;52.008;5.644;2023-04-19T11:24:24;19.40;86.80
45008;DHT22;30743;52.008;5.644;2023-04-19T11:26:49;19.50;86.10
45008;DHT22;30743;52.008;5.644;2023-04-19T11:29:15;19.10;82.00
45008;DHT22;30743;52.008;5.644;2023-04-19T11:31:43;19.10;82.20
45008;DHT22;30743;52.008;5.644;2023-04-19T11:34:10;19.00;81.90
45008;DHT22;30743;52.008;5.644;2023-04-19T11:36:49;19.10;81.30
45008;DHT22;30743;52.008;5.644;2023-04-19T11:39:15;19.40;85.80
45008;DHT22;30743;52.008;5.644;2023-04-19T11:41:41;19.00;82.10
45008;DHT22;30743;52.008;5.644;2023-04-19T11:44:26;18.90;80.40
45008;DHT22;30743;52.008;5.644;2023-04-19T11:46:59;18.60;80.10
45008;DHT22;30743;52.008;5.644;2023-04-19T11:49:27;18.40;81.40
45008;DHT22;30743;52.008;5.644;2023-04-19T11:51:57;18.30;82.70
45008;DHT22;30743;52.008;5.644;2023-04-19T11:54:23;18.30;79.90
45008;DHT22;30743;52.008;5.644;2023-04-19T11:57:03;18.20;82.50
45008;DHT22;30743;52.008;5.644;2023-04-19T11:59:31;18.30;81.10
45008;DHT22;30743;52.008;5.644;2023-04-19T12:02:04;18.40;80.00
45008;DHT22;30743;52.008;5.644;2023-04-19T12:04:30;18.40;82.00
45008;DHT22;30743;52.008;5.644;2023-04-19T12:06:59;18.30;80.20
45008;DHT22;30743;52.008;5.644;2023-04-19T12:09:25;18.30;83.30
45008;DHT22;30743;52.008;5.644;2023-04-19T12:11:51;18.80;86.20
45008;DHT22;30743;52.008;5.644;2023-04-19T12:14:18;18.90;77.80
45008;DHT22;30743;52.008;5.644;2023-04-19T12:17:01;18.90;77.50
45008;DHT22;30743;52.008;5.644;2023-04-19T12:19:27;18.70;77.90
45008;DHT22;30743;52.008;5.644;2023-04-19T12:22:07;18.70;77.90
45008;DHT22;30743;52.008;5.644;2023-04-19T12:24:33;18.50;75.00
45008;DHT22;30743;52.008;5.644;2023-04-19T12:26:58;18.70;81.50
45008;DHT22;30743;52.008;5.644;2023-04-19T12:29:25;18.70;75.40
45008;DHT22;30743;52.008;5.644;2023-04-19T12:31:51;18.90;77.90
45008;DHT22;30743;52.008;5.644;2023-04-19T12:34:16;19.20;80.80
45008;DHT22;30743;52.008;5.644;2023-04-19T12:36:42;19.10;75.80
45008;DHT22;30743;52.008;5.644;2023-04-19T12:39:07;18.90;75.30
45008;DHT22;30743;52.008;5.644;2023-04-19T12:41:33;19.20;81.90
45008;DHT22;30743;52.008;5.644;2023-04-19T12:43:58;19.80;81.40
45008;DHT22;30743;52.008;5.644;2023-04-19T12:46:24;20.30;79.10
45008;DHT22;30743;52.008;5.644;2023-04-19T12:48:50;20.00;79.10
45008;DHT22;30743;52.008;5.644;2023-04-19T12:51:15;19.90;77.20
45008;DHT22;30743;52.008;5.644;2023-04-19T12:53:46;19.60;75.30
45008;DHT22;30743;52.008;5.644;2023-04-19T12:56:11;19.30;75.70
45008;DHT22;30743;52.008;5.644;2023-04-19T12:58:37;18.90;77.90
45008;DHT22;30743;52.008;5.644;2023-04-19T13:01:02;18.90;78.10
45008;DHT22;30743;52.008;5.644;2023-04-19T13:03:28;18.90;77.70
45008;DHT22;30743;52.008;5.644;2023-04-19T13:05:57;19.20;80.50
45008;DHT22;30743;52.008;5.644;2023-04-19T13:08:22;19.60;78.70
45008;DHT22;30743;52.008;5.644;2023-04-19T13:10:48;19.60;81.10
45008;DHT22;30743;52.008;5.644;2023-04-19T13:13:13;19.40;78.70
45008;DHT22;30743;52.008;5.644;2023-04-19T13:15:39;19.40;78.80
45008;DHT22;30743;52.008;5.644;2023-04-19T13:18:06;19.70;78.00
45008;DHT22;30743;52.008;5.644;2023-04-19T13:20:31;20.80;82.70
45008;DHT22;30743;52.008;5.644;2023-04-19T13:22:57;19.60;76.30
45008;DHT22;30743;52.008;5.644;2023-04-19T13:25:22;20.00;79.70
45008;DHT22;30743;52.008;5.644;2023-04-19T13:27:48;19.80;80.90
45008;DHT22;30743;52.008;5.644;2023-04-19T13:30:14;19.60;80.40
45008;DHT22;30743;52.008;5.644;2023-04-19T13:32:40;19.70;84.00
45008;DHT22;30743;52.008;5.644;2023-04-19T13:35:05;19.60;80.90
45008;DHT22;30743;52.008;5.644;2023-04-19T13:37:31;19.40;81.00
45008;DHT22;30743;52.008;5.644;2023-04-19T13:39:57;19.50;80.50
45008;DHT22;30743;52.008;5.644;2023-04-19T13:42:22;19.20;82.00
45008;DHT22;30743;52.008;5.644;2023-04-19T13:44:48;19.20;78.00
45008;DHT22;30743;52.008;5.644;2023-04-19T13:47:13;19.40;78.80
45008;DHT22;30743;52.008;5.644;2023-04-19T13:49:39;19.50;79.20
45008;DHT22;30743;52.008;5.644;2023-04-19T13:52:05;19.70;78.30
45008;DHT22;30743;52.008;5.644;2023-04-19T13:54:31;19.50;78.90
45008;DHT22;30743;52.008;5.644;2023-04-19T13:56:56;19.70;75.50
45008;DHT22;30743;52.008;5.644;2023-04-19T13:59:22;19.60;74.40
45008;DHT22;30743;52.008;5.644;2023-04-19T14:01:50;19.70;76.90
45008;DHT22;30743;52.008;5.644;2023-04-19T14:04:16;19.40;72.80
45008;DHT22;30743;52.008;5.644;2023-04-19T14:06:42;19.50;76.50
45008;DHT22;30743;52.008;5.644;2023-04-19T14:09:07;19.20;73.00
45008;DHT22;30743;52.008;5.644;2023-04-19T14:11:33;19.10;73.30
45008;DHT22;30743;52.008;5.644;2023-04-19T14:13:59;19.30;75.90
45008;DHT22;30743;52.008;5.644;2023-04-19T14:16:24;19.40;76.20
45008;DHT22;30743;52.008;5.644;2023-04-19T14:18:50;19.40;78.60
45008;DHT22;30743;52.008;5.644;2023-04-19T14:21:16;19.40;74.60
45008;DHT22;30743;52.008;5.644;2023-04-19T14:23:42;19.50;76.80
45008;DHT22;30743;52.008;5.644;2023-04-19T14:26:07;19.40;77.00
45008;DHT22;30743;52.008;5.644;2023-04-19T14:28:33;19.40;75.70
45008;DHT22;30743;52.008;5.644;2023-04-19T14:30:58;19.30;74.70
45008;DHT22;30743;52.008;5.644;2023-04-19T14:33:24;20.30;78.10
45008;DHT22;30743;52.008;5.644;2023-04-19T14:35:50;19.40;77.10
45008;DHT22;30743;52.008;5.644;2023-04-19T14:38:16;19.40;77.20
45008;DHT22;30743;52.008;5.644;2023-04-19T14:40:41;19.40;75.30
45008;DHT22;30743;52.008;5.644;2023-04-19T14:43:07;19.40;77.90
45008;DHT22;30743;52.008;5.644;2023-04-19T14:45:32;19.30;78.00
45008;DHT22;30743;52.008;5.644;2023-04-19T14:47:58;19.40;77.50
45008;DHT22;30743;52.008;5.644;2023-04-19T14:50:24;19.50;81.10
45008;DHT22;30743;52.008;5.644;2023-04-19T14:52:49;19.70;80.30
45008;DHT22;30743;52.008;5.644;2023-04-19T14:55:15;19.20;77.10
45008;DHT22;30743;52.008;5.644;2023-04-19T14:57:40;18.90;79.10
45008;DHT22;30743;52.008;5.644;2023-04-19T15:00:06;18.80;83.40
45008;DHT22;30743;52.008;5.644;2023-04-19T15:02:32;18.80;80.60
45008;DHT22;30743;52.008;5.644;2023-04-19T15:04:58;18.90;83.00
45008;DHT22;30743;52.008;5.644;2023-04-19T15:07:23;18.80;81.50
45008;DHT22;30743;52.008;5.644;2023-04-19T15:09:49;18.60;82.50
45008;DHT22;30743;52.008;5.644;2023-04-19T15:12:14;18.30;83.50
45008;DHT22;30743;52.008;5.644;2023-04-19T15:14:40;18.00;82.80
45008;DHT22;30743;52.008;5.644;2023-04-19T15:17:05;18.20;84.80
45008;DHT22;30743;52.008;5.644;2023-04-19T15:19:31;18.40;81.30
45008;DHT22;30743;52.008;5.644;2023-04-19T15:21:57;18.30;80.40
45008;DHT22;30743;52.008;5.644;2023-04-19T15:24:22;18.00;79.90
45008;DHT22;30743;52.008;5.644;2023-04-19T15:26:48;18.00;81.60
45008;DHT22;30743;52.008;5.644;2023-04-19T15:29:13;18.00;82.50
45008;DHT22;30743;52.008;5.644;2023-04-19T15:31:39;18.20;82.90
45008;DHT22;30743;52.008;5.644;2023-04-19T15:34:05;18.20;84.20
45008;DHT22;30743;52.008;5.644;2023-04-19T15:36:30;18.20;83.60
45008;DHT22;30743;52.008;5.644;2023-04-19T15:38:57;18.20;82.80
45008;DHT22;30743;52.008;5.644;2023-04-19T15:41:23;18.10;81.40
45008;DHT22;30743;52.008;5.644;2023-04-19T15:43:48;18.20;82.50
45008;DHT22;30743;52.008;5.644;2023-04-19T15:46:14;18.30;84.20